createdAt,value
2022-11-28T00:01:33.259Z,6.57
2022-11-28T00:04:00.343Z,5.97
2022-11-28T00:06:28.282Z,5.40
2022-11-28T00:08:57.594Z,6.30
2022-11-28T00:11:24.343Z,6.10
2022-11-28T00:13:51.338Z,6.27
2022-11-28T00:16:21.658Z,6.80
2022-11-28T00:18:53.897Z,5.60
2022-11-28T00:21:21.382Z,6.80
2022-11-28T00:23:48.791Z,6.97
2022-11-28T00:26:21.841Z,6.30
2022-11-28T00:28:49.001Z,8.80
2022-11-28T00:31:18.353Z,6.43
2022-11-28T00:33:45.660Z,6.57
2022-11-28T00:36:13.375Z,6.00
2022-11-28T00:38:40.810Z,6.97
2022-11-28T00:41:14.112Z,5.90
2022-11-28T00:43:41.579Z,7.37
2022-11-28T00:46:08.440Z,6.20
2022-11-28T00:48:36.632Z,8.23
2022-11-28T00:51:08.776Z,5.50
2022-11-28T00:53:36.458Z,6.37
2022-11-28T00:56:07.459Z,6.40
2022-11-28T00:58:35.391Z,6.60
2022-11-28T01:01:12.809Z,5.77
2022-11-28T01:03:40.149Z,7.80
2022-11-28T01:06:08.203Z,6.13
2022-11-28T01:08:35.209Z,6.33
2022-11-28T01:13:27.411Z,6.50
2022-11-28T01:15:54.634Z,5.93
2022-11-28T01:18:21.458Z,6.37
2022-11-28T01:20:48.227Z,8.17
2022-11-28T01:23:16.295Z,7.47
2022-11-28T01:25:43.041Z,6.30
2022-11-28T01:28:09.738Z,6.80
2022-11-28T01:30:36.509Z,5.90
2022-11-28T01:33:03.248Z,6.37
2022-11-28T01:35:29.974Z,6.20
2022-11-28T01:37:56.699Z,5.10
2022-11-28T01:40:23.594Z,6.27
2022-11-28T01:42:50.301Z,6.30
2022-11-28T01:45:20.024Z,5.83
2022-11-28T01:47:48.278Z,5.87
2022-11-28T01:50:16.074Z,5.90
2022-11-28T01:52:45.426Z,6.20
2022-11-28T01:55:15.215Z,5.60
2022-11-28T01:57:42.674Z,6.53
2022-11-28T02:00:18.138Z,10.00
2022-11-28T02:02:47.778Z,9.17
2022-11-28T02:05:15.902Z,8.67
2022-11-28T02:07:44.620Z,8.50
2022-11-28T02:10:16.466Z,6.57
2022-11-28T02:13:13.972Z,6.93
2022-11-28T02:15:59.380Z,9.07
2022-11-28T02:18:52.055Z,9.33
2022-11-28T02:21:47.282Z,8.93
2022-11-28T02:24:39.861Z,11.13
2022-11-28T02:27:15.278Z,7.30
2022-11-28T02:30:03.593Z,10.87
2022-11-28T02:32:39.178Z,7.00
2022-11-28T02:35:21.221Z,12.30
2022-11-28T02:38:02.603Z,7.50
2022-11-28T02:40:50.783Z,12.33
2022-11-28T02:43:33.022Z,7.43
2022-11-28T02:46:13.392Z,7.00
2022-11-28T02:48:50.949Z,9.10
2022-11-28T02:51:27.310Z,7.40
2022-11-28T02:53:55.632Z,9.77
2022-11-28T02:56:24.633Z,13.27
2022-11-28T02:58:52.036Z,7.43
2022-11-28T03:01:27.862Z,8.73
2022-11-28T03:04:15.053Z,12.50
2022-11-28T03:06:53.542Z,10.20
2022-11-28T03:09:23.246Z,10.07
2022-11-28T03:12:23.758Z,12.57
2022-11-28T03:15:06.202Z,11.23
2022-11-28T03:17:38.737Z,8.17
2022-11-28T03:20:26.742Z,11.70
2022-11-28T03:23:10.506Z,11.50
2022-11-28T03:25:52.258Z,8.53
2022-11-28T03:28:26.128Z,16.40
2022-11-28T03:31:02.581Z,12.73
2022-11-28T03:33:33.431Z,8.07
2022-11-28T03:36:17.818Z,10.30
2022-11-28T03:38:54.635Z,10.87
2022-11-28T03:41:28.182Z,14.47
2022-11-28T03:43:57.805Z,9.10
2022-11-28T03:46:31.167Z,10.50
2022-11-28T03:48:59.577Z,12.13
2022-11-28T03:51:36.241Z,8.13
2022-11-28T03:54:20.626Z,15.93
2022-11-28T03:57:13.181Z,8.70
2022-11-28T03:59:49.865Z,10.77
2022-11-28T04:02:37.292Z,10.03
2022-11-28T04:05:09.406Z,9.60
2022-11-28T04:07:42.854Z,7.80
2022-11-28T04:10:32.124Z,14.23
2022-11-28T04:13:11.207Z,10.43
2022-11-28T04:15:47.540Z,10.30
2022-11-28T04:18:40.744Z,9.23
2022-11-28T04:21:27.254Z,8.80
2022-11-28T04:23:57.826Z,9.47
2022-11-28T04:26:30.808Z,17.17
2022-11-28T04:29:00.311Z,7.87
2022-11-28T04:31:27.563Z,7.53
2022-11-28T04:34:00.712Z,8.37
2022-11-28T04:36:29.054Z,8.33
2022-11-28T04:38:58.154Z,7.90
2022-11-28T04:41:55.441Z,7.27
2022-11-28T04:44:35.382Z,7.73
2022-11-28T04:47:03.094Z,7.13
2022-11-28T04:49:31.416Z,8.37
2022-11-28T04:52:14.672Z,9.60
2022-11-28T04:55:02.033Z,6.80
2022-11-28T04:57:42.142Z,10.60
2022-11-28T05:00:15.342Z,11.70
2022-11-28T05:02:44.357Z,7.63
2022-11-28T05:05:23.849Z,7.43
2022-11-28T05:07:50.705Z,8.60
2022-11-28T05:10:18.031Z,6.70
2022-11-28T05:12:44.801Z,7.00
2022-11-28T05:15:12.075Z,6.30
2022-11-28T05:17:42.245Z,6.63
2022-11-28T05:20:09.954Z,7.37
2022-11-28T05:22:36.662Z,7.07
2022-11-28T05:25:03.511Z,8.53
2022-11-28T05:27:30.219Z,8.03
2022-11-28T05:29:57.007Z,7.97
2022-11-28T05:32:23.960Z,13.23
2022-11-28T05:34:50.661Z,10.27
2022-11-28T05:37:17.413Z,7.70
2022-11-28T05:39:44.393Z,10.40
2022-11-28T05:42:11.370Z,7.33
2022-11-28T05:44:38.315Z,7.17
2022-11-28T05:47:05.086Z,6.60
2022-11-28T05:49:31.798Z,6.43
2022-11-28T05:51:58.577Z,7.30
2022-11-28T05:54:25.335Z,7.70
2022-11-28T05:56:52.056Z,7.40
2022-11-28T05:59:18.774Z,6.47
2022-11-28T06:01:45.715Z,7.17
2022-11-28T06:04:12.599Z,8.97
2022-11-28T06:06:39.493Z,14.50
2022-11-28T06:09:07.086Z,7.03
2022-11-28T06:11:34.782Z,10.87
2022-11-28T06:14:03.108Z,6.30
2022-11-28T06:16:31.065Z,10.20
2022-11-28T06:19:04.229Z,8.50
2022-11-28T06:21:31.685Z,7.33
2022-11-28T06:23:59.319Z,12.60
2022-11-28T06:26:27.972Z,17.00
2022-11-28T06:28:58.106Z,7.73
2022-11-28T06:31:28.557Z,9.03
2022-11-28T06:33:56.180Z,8.90
2022-11-28T06:36:23.047Z,10.10
2022-11-28T06:38:49.778Z,8.73
2022-11-28T06:41:19.157Z,8.63
2022-11-28T06:43:45.883Z,8.60
2022-11-28T06:46:16.439Z,14.03
2022-11-28T06:48:44.136Z,9.23
2022-11-28T06:51:11.462Z,6.73
2022-11-28T06:53:38.366Z,9.47
2022-11-28T06:56:10.166Z,7.90
2022-11-28T06:58:37.191Z,8.03
2022-11-28T07:01:09.074Z,10.60
2022-11-28T07:03:36.483Z,11.77
2022-11-28T07:06:04.669Z,10.63
2022-11-28T07:08:32.585Z,12.20
2022-11-28T07:13:25.174Z,13.40
2022-11-28T07:15:52.052Z,10.57
2022-11-28T07:18:19.014Z,8.00
2022-11-28T07:20:45.850Z,9.77
2022-11-28T07:23:12.590Z,16.20
2022-11-28T07:25:39.395Z,7.90
2022-11-28T07:28:06.333Z,12.90
2022-11-28T07:30:33.106Z,10.97
2022-11-28T07:32:59.881Z,8.43
2022-11-28T07:35:26.602Z,8.40
2022-11-28T07:37:53.458Z,20.10
2022-11-28T07:40:22.770Z,12.70
2022-11-28T07:42:49.607Z,9.03
2022-11-28T07:45:16.450Z,10.20
2022-11-28T07:47:43.226Z,10.30
2022-11-28T07:50:10.296Z,8.97
2022-11-28T07:52:37.407Z,11.90
2022-11-28T07:55:04.460Z,11.23
2022-11-28T07:57:31.235Z,9.67
2022-11-28T07:59:57.977Z,10.90
2022-11-28T08:02:26.031Z,15.47
2022-11-28T08:04:55.229Z,13.30
2022-11-28T08:07:22.267Z,11.37
2022-11-28T08:09:49.043Z,13.43
2022-11-28T08:12:15.824Z,15.63
2022-11-28T08:14:42.886Z,10.37
2022-11-28T08:17:09.755Z,12.90
2022-11-28T08:19:36.493Z,11.07
2022-11-28T08:22:03.210Z,16.10
2022-11-28T08:24:29.946Z,14.43
2022-11-28T08:26:57.213Z,13.40
2022-11-28T08:29:24.003Z,13.23
2022-11-28T08:31:50.806Z,11.10
2022-11-28T08:34:17.767Z,21.00
2022-11-28T08:36:44.681Z,11.10
2022-11-28T08:39:27.542Z,9.97
2022-11-28T08:41:59.645Z,17.20
2022-11-28T08:44:30.186Z,8.60
2022-11-28T08:46:57.298Z,10.33
2022-11-28T08:49:24.017Z,9.27
2022-11-28T08:51:50.758Z,13.20
2022-11-28T08:54:17.618Z,8.90
2022-11-28T08:56:46.563Z,10.57
2022-11-28T08:59:13.329Z,11.10
2022-11-28T09:01:40.155Z,11.67
2022-11-28T09:04:06.936Z,14.93
2022-11-28T09:06:33.764Z,12.37
2022-11-28T09:09:02.040Z,13.17
2022-11-28T09:11:28.789Z,17.70
2022-11-28T09:13:55.858Z,11.47
2022-11-28T09:16:22.833Z,14.37
2022-11-28T09:18:49.664Z,10.53
2022-11-28T09:21:16.443Z,22.40
2022-11-28T09:23:44.614Z,15.70
2022-11-28T09:26:13.921Z,17.80
2022-11-28T09:28:40.743Z,16.40
2022-11-28T09:31:08.503Z,10.57
2022-11-28T09:33:36.279Z,12.37
2022-11-28T09:36:12.082Z,9.23
2022-11-28T09:38:39.025Z,9.90
2022-11-28T09:41:30.279Z,14.87
2022-11-28T09:44:08.344Z,14.70
2022-11-28T09:46:38.441Z,10.70
2022-11-28T09:49:25.290Z,11.83
2022-11-28T09:52:03.854Z,17.60
2022-11-28T09:54:36.752Z,10.17
2022-11-28T09:57:08.726Z,10.97
2022-11-28T09:59:35.784Z,11.10
2022-11-28T10:02:26.914Z,13.37
2022-11-28T10:05:10.492Z,10.23
2022-11-28T10:07:59.098Z,15.00
2022-11-28T10:16:56.867Z,10.73
2022-11-28T10:19:56.944Z,11.70
2022-11-28T10:22:37.868Z,10.60
2022-11-28T10:25:19.013Z,8.83
2022-11-28T10:27:47.074Z,8.20
2022-11-28T10:30:37.613Z,10.03
2022-11-28T10:33:23.120Z,9.57
2022-11-28T10:36:01.328Z,7.67
2022-11-28T10:38:29.998Z,7.20
2022-11-28T10:41:00.886Z,8.90
2022-11-28T10:43:59.480Z,7.10
2022-11-28T10:46:40.529Z,5.93
2022-11-28T10:49:14.858Z,6.27
2022-11-28T10:51:58.671Z,7.03
2022-11-28T10:54:44.203Z,6.30
2022-11-28T10:57:20.384Z,6.53
2022-11-28T11:00:10.696Z,6.87
2022-11-28T11:02:52.156Z,8.07
2022-11-28T11:05:29.064Z,7.97
2022-11-28T11:08:20.048Z,7.53
2022-11-28T11:13:33.263Z,13.07
2022-11-28T11:16:07.448Z,7.83
2022-11-28T11:18:36.206Z,8.10
2022-11-28T11:21:21.128Z,8.43
2022-11-28T11:24:08.716Z,8.47
2022-11-28T11:26:42.150Z,11.23
2022-11-28T11:29:20.888Z,12.73
2022-11-28T11:31:52.923Z,8.13
2022-11-28T11:34:23.456Z,9.83
2022-11-28T11:36:51.483Z,9.67
2022-11-28T11:39:25.434Z,9.37
2022-11-28T11:42:10.796Z,8.60
2022-11-28T11:44:37.808Z,9.77
2022-11-28T11:47:09.984Z,9.80
2022-11-28T11:49:42.536Z,8.20
2022-11-28T11:52:15.110Z,9.20
2022-11-28T11:54:59.153Z,9.30
2022-11-28T11:57:39.313Z,9.40
2022-11-28T12:00:14.363Z,11.67
2022-11-28T12:02:47.486Z,8.60
2022-11-28T12:05:28.438Z,8.17
2022-11-28T12:08:28.309Z,15.73
2022-11-28T12:13:30.251Z,9.83
2022-11-28T12:16:15.105Z,9.30
2022-11-28T12:19:12.396Z,8.40
2022-11-28T12:22:00.738Z,8.20
2022-11-28T12:25:00.462Z,13.10
2022-11-28T12:27:52.409Z,8.53
2022-11-28T12:31:03.888Z,8.87
2022-11-28T12:33:39.285Z,9.27
2022-11-28T12:36:12.257Z,9.73
2022-11-28T12:38:57.850Z,9.50
2022-11-28T12:41:55.551Z,9.03
2022-11-28T12:44:48.515Z,8.90
2022-11-28T12:47:37.475Z,8.53
2022-11-28T12:50:07.157Z,9.23
2022-11-28T12:53:01.002Z,9.10
2022-11-28T12:56:06.080Z,10.53
2022-11-28T12:58:51.341Z,11.27
2022-11-28T13:01:37.126Z,15.17
2022-11-28T13:04:15.861Z,16.00
2022-11-28T13:06:51.183Z,12.30
2022-11-28T13:09:34.629Z,15.53
2022-11-28T13:12:04.186Z,22.30
2022-11-28T13:14:30.924Z,25.50
2022-11-28T13:17:07.993Z,26.93
2022-11-28T13:20:00.544Z,25.03
2022-11-28T13:22:50.093Z,24.47
2022-11-28T13:25:31.967Z,22.77
2022-11-28T13:27:58.644Z,26.47
2022-11-28T13:30:28.740Z,20.50
2022-11-28T13:33:05.255Z,26.80
2022-11-28T13:35:32.714Z,28.23
2022-11-28T13:40:55.859Z,34.60
2022-11-28T13:43:40.814Z,26.60
2022-11-28T13:46:09.138Z,31.20
2022-11-28T13:51:32.966Z,23.10
2022-11-28T13:54:31.991Z,30.73
2022-11-28T13:57:25.176Z,41.77
2022-11-28T14:00:02.689Z,71.43
2022-11-28T14:02:38.309Z,180.97
2022-11-28T14:05:14.959Z,31.73
2022-11-28T14:07:47.940Z,25.57
2022-11-28T14:10:40.600Z,25.97
2022-11-28T14:13:26.595Z,29.93
2022-11-28T14:16:31.056Z,23.70
2022-11-28T14:19:23.891Z,32.70
2022-11-28T14:22:19.941Z,25.37
2022-11-28T14:25:04.970Z,38.50
2022-11-28T14:27:38.016Z,21.47
2022-11-28T14:30:06.263Z,43.03
2022-11-28T14:32:43.456Z,30.67
2022-11-28T14:35:37.643Z,22.27
2022-11-28T14:38:44.637Z,23.73
2022-11-28T14:41:14.886Z,27.40
2022-11-28T14:43:44.703Z,16.40
2022-11-28T14:46:24.805Z,19.53
2022-11-28T14:49:00.473Z,27.40
2022-11-28T14:51:45.563Z,22.50
2022-11-28T14:54:35.569Z,25.67
2022-11-28T14:57:10.526Z,31.77
2022-11-28T14:59:40.165Z,54.80
2022-11-28T15:02:13.030Z,43.33
2022-11-28T15:05:11.621Z,22.63
2022-11-28T15:07:48.727Z,22.17
2022-11-28T15:10:34.051Z,23.70
2022-11-28T15:13:10.347Z,23.80
2022-11-28T15:15:37.148Z,23.10
2022-11-28T15:18:04.936Z,25.17
2022-11-28T15:20:43.245Z,21.80
2022-11-28T15:23:29.656Z,21.80
2022-11-28T15:25:58.119Z,24.23
2022-11-28T15:28:28.483Z,35.43
2022-11-28T15:30:57.506Z,28.70
2022-11-28T15:33:28.372Z,21.00
2022-11-28T15:36:00.018Z,21.07
2022-11-28T15:38:28.685Z,31.63
2022-11-28T15:40:56.746Z,21.50
2022-11-28T15:43:25.093Z,34.33
2022-11-28T15:45:54.716Z,17.33
2022-11-28T15:48:39.702Z,24.37
2022-11-28T15:51:07.884Z,21.90
2022-11-28T15:53:40.767Z,38.03
2022-11-28T15:56:15.681Z,27.97
2022-11-28T15:58:43.969Z,40.73
2022-11-28T16:01:21.440Z,25.03
2022-11-28T16:03:59.055Z,35.43
2022-11-28T16:06:29.853Z,33.87
2022-11-28T16:08:58.074Z,28.33
2022-11-28T16:11:30.642Z,23.87
2022-11-28T16:14:01.344Z,87.47
2022-11-28T16:16:31.564Z,24.03
2022-11-28T16:19:01.783Z,24.03
2022-11-28T16:21:45.454Z,35.40
2022-11-28T16:24:27.122Z,25.60
2022-11-28T16:27:02.564Z,28.67
2022-11-28T16:29:34.843Z,25.90
2022-11-28T16:32:26.169Z,26.50
2022-11-28T16:34:55.426Z,22.80
2022-11-28T16:37:27.871Z,19.73
2022-11-28T16:40:12.993Z,29.23
2022-11-28T16:42:40.254Z,87.83
2022-11-28T16:45:20.624Z,39.53
2022-11-28T16:48:09.096Z,20.20
2022-11-28T16:50:36.347Z,17.30
2022-11-28T16:53:04.004Z,18.47
2022-11-28T16:55:30.889Z,25.83
2022-11-28T16:58:13.019Z,25.20
2022-11-28T17:00:43.238Z,20.87
2022-11-28T17:03:44.297Z,33.73
2022-11-28T17:06:16.383Z,24.50
2022-11-28T17:08:43.181Z,22.00
2022-11-28T17:11:10.466Z,28.20
2022-11-28T17:13:37.269Z,38.53
2022-11-28T17:16:04.162Z,24.23
2022-11-28T17:18:30.954Z,24.03
2022-11-28T17:20:57.635Z,34.80
2022-11-28T17:23:25.282Z,19.97
2022-11-28T17:25:52.235Z,24.87
2022-11-28T17:28:22.335Z,19.87
2022-11-28T17:30:50.975Z,18.67
2022-11-28T17:33:17.962Z,25.83
2022-11-28T17:35:47.011Z,25.77
2022-11-28T17:38:13.966Z,27.70
2022-11-28T17:40:42.259Z,27.13
2022-11-28T17:43:18.755Z,26.60
2022-11-28T17:45:46.507Z,24.03
2022-11-28T17:48:16.007Z,20.83
2022-11-28T17:50:43.838Z,32.90
2022-11-28T17:53:12.235Z,22.70
2022-11-28T17:55:40.883Z,19.27
2022-11-28T17:58:15.676Z,29.80
2022-11-28T18:00:42.517Z,27.17
2022-11-28T18:03:09.407Z,30.40
2022-11-28T18:05:38.375Z,58.73
2022-11-28T18:08:05.273Z,19.40
2022-11-28T18:10:32.067Z,21.63
2022-11-28T18:12:58.818Z,24.07
2022-11-28T18:15:27.873Z,26.27
2022-11-28T18:17:55.374Z,18.70
2022-11-28T18:20:22.271Z,27.10
2022-11-28T18:22:49.011Z,23.07
2022-11-28T18:25:15.802Z,36.00
2022-11-28T18:27:42.598Z,28.80
2022-11-28T18:30:09.878Z,33.03
2022-11-28T18:32:36.606Z,44.57
2022-11-28T18:35:03.482Z,31.73
2022-11-28T18:37:30.847Z,21.30
2022-11-28T18:39:57.604Z,34.23
2022-11-28T18:42:24.386Z,31.73
2022-11-28T18:44:51.123Z,34.83
2022-11-28T18:47:17.920Z,35.20
2022-11-28T18:49:44.820Z,33.03
2022-11-28T18:52:11.707Z,34.87
2022-11-28T18:54:38.635Z,39.13
2022-11-28T18:57:08.678Z,36.23
2022-11-28T18:59:35.472Z,30.47
2022-11-28T19:02:02.305Z,30.57
2022-11-28T19:04:29.118Z,47.20
2022-11-28T19:06:55.884Z,31.67
2022-11-28T19:09:22.680Z,25.97
2022-11-28T19:11:49.430Z,39.80
2022-11-28T19:14:18.018Z,34.63
2022-11-28T19:16:46.934Z,37.60
2022-11-28T19:19:13.844Z,26.20
2022-11-28T19:21:40.584Z,35.57
2022-11-28T19:24:08.538Z,37.00
2022-11-28T19:26:35.874Z,30.43
2022-11-28T19:29:02.816Z,36.57
2022-11-28T19:31:32.493Z,43.70
2022-11-28T19:34:01.563Z,29.13
2022-11-28T19:36:40.637Z,28.93
2022-11-28T19:39:09.304Z,37.10
2022-11-28T19:41:36.095Z,30.63
2022-11-28T19:44:02.811Z,27.60
2022-11-28T19:46:35.149Z,26.53
2022-11-28T19:49:02.523Z,34.50
2022-11-28T19:51:29.225Z,37.20
2022-11-28T19:54:01.352Z,30.37
2022-11-28T19:56:29.899Z,25.53
2022-11-28T19:58:56.735Z,40.83
2022-11-28T20:01:24.630Z,42.57
2022-11-28T20:03:52.383Z,29.43
2022-11-28T20:06:22.087Z,40.93
2022-11-28T20:08:50.722Z,51.33
2022-11-28T20:11:26.307Z,40.27
2022-11-28T20:13:58.621Z,38.83
2022-11-28T20:16:25.787Z,28.93
2022-11-28T20:18:52.614Z,35.93
2022-11-28T20:21:20.561Z,32.03
2022-11-28T20:23:48.942Z,35.20
2022-11-28T20:26:17.626Z,31.43
2022-11-28T20:28:44.502Z,44.13
2022-11-28T20:31:25.391Z,36.17
2022-11-28T20:33:53.262Z,33.43
2022-11-28T20:36:22.339Z,29.57
2022-11-28T20:38:50.405Z,41.60
2022-11-28T20:41:18.913Z,40.03
2022-11-28T20:43:45.962Z,35.00
2022-11-28T20:46:27.205Z,42.50
2022-11-28T20:48:54.325Z,33.93
2022-11-28T20:51:24.965Z,32.30
2022-11-28T20:53:52.935Z,32.60
2022-11-28T20:56:22.186Z,31.67
2022-11-28T20:58:49.935Z,37.13
2022-11-28T21:01:19.532Z,34.87
2022-11-28T21:03:47.874Z,31.40
2022-11-28T21:06:15.490Z,41.47
2022-11-28T21:08:47.199Z,31.90
2022-11-28T21:11:43.389Z,32.73
2022-11-28T21:14:06.734Z,36.80
2022-11-28T21:16:34.210Z,32.60
2022-11-28T21:19:07.676Z,33.13
2022-11-28T21:21:35.968Z,48.33
2022-11-28T21:24:05.917Z,42.40
2022-11-28T21:26:37.743Z,29.90
2022-11-28T21:29:10.942Z,33.77
2022-11-28T21:31:41.949Z,42.00
2022-11-28T21:34:14.393Z,32.77
2022-11-28T21:36:42.120Z,31.33
2022-11-28T21:39:13.420Z,27.23
2022-11-28T21:41:40.251Z,45.70
2022-11-28T21:44:07.129Z,41.63
2022-11-28T21:46:33.839Z,37.97
2022-11-28T21:49:00.579Z,37.57
2022-11-28T21:51:30.231Z,43.13
2022-11-28T21:53:57.823Z,45.70
2022-11-28T21:56:25.262Z,36.07
2022-11-28T21:58:52.114Z,39.20
2022-11-28T22:01:20.385Z,44.93
2022-11-28T22:03:47.191Z,39.50
2022-11-28T22:06:19.313Z,63.17
2022-11-28T22:08:46.311Z,40.07
2022-11-28T22:11:13.626Z,34.90
2022-11-28T22:13:47.705Z,42.53
2022-11-28T22:16:20.034Z,41.60
2022-11-28T22:18:48.129Z,40.53
2022-11-28T22:24:03.291Z,36.37
2022-11-28T22:26:30.063Z,34.73
2022-11-28T22:28:58.753Z,41.17
2022-11-28T22:31:25.718Z,41.43
2022-11-28T22:33:52.682Z,39.00
2022-11-28T22:36:21.153Z,36.47
2022-11-28T22:38:49.411Z,41.63
2022-11-28T22:41:22.025Z,34.63
2022-11-28T22:43:55.888Z,31.40
2022-11-28T22:46:22.852Z,37.97
2022-11-28T22:48:50.599Z,28.10
2022-11-28T22:51:20.608Z,34.60
2022-11-28T22:53:47.345Z,40.57
2022-11-28T22:56:15.546Z,32.10
2022-11-28T22:58:44.759Z,33.33
2022-11-28T23:01:15.156Z,45.67
2022-11-28T23:03:42.003Z,30.13
2022-11-28T23:06:14.390Z,41.73
2022-11-28T23:08:41.306Z,46.13
2022-11-28T23:11:10.169Z,57.07
2022-11-28T23:13:37.460Z,35.80
2022-11-28T23:16:09.882Z,29.87
2022-11-28T23:18:36.670Z,54.07
2022-11-28T23:21:03.474Z,34.37
2022-11-28T23:23:34.862Z,38.63
2022-11-28T23:26:13.136Z,44.47
2022-11-28T23:28:40.248Z,42.17
2022-11-28T23:31:20.102Z,32.87
2022-11-28T23:33:47.607Z,39.67
2022-11-28T23:36:16.796Z,34.70
2022-11-28T23:38:45.179Z,40.63
2022-11-28T23:41:12.559Z,43.40
2022-11-28T23:43:40.035Z,38.03
2022-11-28T23:46:07.953Z,42.60
2022-11-28T23:48:35.133Z,46.47
2022-11-28T23:51:01.921Z,35.17
2022-11-28T23:53:28.653Z,36.77
2022-11-28T23:55:55.416Z,55.67
2022-11-28T23:58:22.135Z,39.10
